createdAt,value
2023-05-08T00:00:05.043Z,11.45
2023-05-08T00:02:32.111Z,11.44
2023-05-08T00:04:58.899Z,11.45
2023-05-08T00:07:25.535Z,11.40
2023-05-08T00:09:52.373Z,11.40
2023-05-08T00:12:18.942Z,11.39
2023-05-08T00:14:45.438Z,11.36
2023-05-08T00:17:12.622Z,11.36
2023-05-08T00:19:39.086Z,11.34
2023-05-08T00:22:07.682Z,11.32
2023-05-08T00:24:34.241Z,11.28
2023-05-08T00:27:01.146Z,11.26
2023-05-08T00:29:27.822Z,11.24
2023-05-08T00:31:54.555Z,11.20
2023-05-08T00:34:21.247Z,11.18
2023-05-08T00:36:47.837Z,11.12
2023-05-08T00:39:14.454Z,11.10
2023-05-08T00:41:41.062Z,11.07
2023-05-08T00:44:07.614Z,11.03
2023-05-08T00:46:35.281Z,11.01
2023-05-08T00:49:02.370Z,10.99
2023-05-08T00:51:29.553Z,10.98
2023-05-08T00:53:56.382Z,10.97
2023-05-08T00:56:25.297Z,10.96
2023-05-08T00:58:52.202Z,10.95
2023-05-08T01:01:18.974Z,10.89
2023-05-08T01:03:45.691Z,10.86
2023-05-08T01:06:12.376Z,10.85
2023-05-08T01:08:40.502Z,10.82
2023-05-08T01:11:32.154Z,10.76
2023-05-08T01:14:13.352Z,10.75
2023-05-08T01:16:44.170Z,10.74
2023-05-08T01:19:40.775Z,10.70
2023-05-08T01:22:20.054Z,10.68
2023-05-08T01:25:16.707Z,10.65
2023-05-08T01:28:22.054Z,10.64
2023-05-08T01:31:06.879Z,10.61
2023-05-08T01:33:48.572Z,10.58
2023-05-08T01:36:28.053Z,10.54
2023-05-08T01:39:00.472Z,10.52
2023-05-08T01:41:30.727Z,10.50
2023-05-08T01:44:06.257Z,10.49
2023-05-08T01:46:33.925Z,10.48
2023-05-08T01:49:22.167Z,10.46
2023-05-08T01:52:03.184Z,10.45
2023-05-08T01:54:38.496Z,10.43
2023-05-08T01:57:08.560Z,10.39
2023-05-08T01:59:36.630Z,10.38
2023-05-08T02:02:04.255Z,10.37
2023-05-08T02:04:33.390Z,10.35
2023-05-08T02:07:01.739Z,10.34
2023-05-08T02:09:30.482Z,10.33
2023-05-08T02:11:57.656Z,10.33
2023-05-08T02:14:26.983Z,10.34
2023-05-08T02:16:55.905Z,10.34
2023-05-08T02:19:25.602Z,10.33
2023-05-08T02:21:53.672Z,10.31
2023-05-08T02:24:21.090Z,10.30
2023-05-08T02:26:49.044Z,10.31
2023-05-08T02:29:16.316Z,10.31
2023-05-08T02:31:44.240Z,10.30
2023-05-08T02:34:12.110Z,10.32
2023-05-08T02:36:39.734Z,10.33
2023-05-08T02:39:08.546Z,10.31
2023-05-08T02:41:36.236Z,10.32
2023-05-08T02:44:02.969Z,10.33
2023-05-08T02:46:50.978Z,10.32
2023-05-08T02:49:36.837Z,10.30
2023-05-08T02:52:13.816Z,10.31
2023-05-08T02:54:44.445Z,10.30
2023-05-08T02:57:21.829Z,10.29
2023-05-08T02:59:59.647Z,10.27
2023-05-08T03:02:35.793Z,10.26
2023-05-08T03:05:15.792Z,10.26
2023-05-08T03:07:45.545Z,10.25
2023-05-08T03:10:16.027Z,10.25
2023-05-08T03:12:48.656Z,10.24
2023-05-08T03:15:24.034Z,10.21
2023-05-08T03:17:55.436Z,10.18
2023-05-08T03:20:24.827Z,10.15
2023-05-08T03:22:53.322Z,10.09
2023-05-08T03:25:21.343Z,10.05
2023-05-08T03:27:49.949Z,9.99
2023-05-08T03:30:17.849Z,9.96
2023-05-08T03:32:46.973Z,9.91
2023-05-08T03:35:15.458Z,9.88
2023-05-08T03:37:43.332Z,9.85
2023-05-08T03:40:10.480Z,9.83
2023-05-08T03:42:38.595Z,9.78
2023-05-08T03:45:07.325Z,9.75
2023-05-08T03:47:36.400Z,9.70
2023-05-08T03:50:04.353Z,9.66
2023-05-08T03:52:32.610Z,9.61
2023-05-08T03:54:59.489Z,9.59
2023-05-08T03:57:31.119Z,9.60
2023-05-08T04:00:06.543Z,9.63
2023-05-08T04:02:42.563Z,9.62
2023-05-08T04:05:29.830Z,9.61
2023-05-08T04:08:08.280Z,9.63
2023-05-08T04:10:43.697Z,9.62
2023-05-08T04:13:20.102Z,9.59
2023-05-08T04:16:00.836Z,9.56
2023-05-08T04:18:30.573Z,9.55
2023-05-08T04:20:58.647Z,9.56
2023-05-08T04:23:27.618Z,9.60
2023-05-08T04:25:56.698Z,9.66
2023-05-08T04:28:23.679Z,9.69
2023-05-08T04:30:52.048Z,9.71
2023-05-08T04:33:19.151Z,9.73
2023-05-08T04:35:48.757Z,9.78
2023-05-08T04:38:15.294Z,9.86
2023-05-08T04:40:41.774Z,9.95
2023-05-08T04:43:08.505Z,10.07
2023-05-08T04:45:35.050Z,10.09
2023-05-08T04:48:01.817Z,10.24
2023-05-08T04:50:28.569Z,10.35
2023-05-08T04:52:55.809Z,10.42
2023-05-08T04:55:22.390Z,10.52
2023-05-08T04:57:49.075Z,10.69
2023-05-08T05:00:15.967Z,11.10
2023-05-08T05:02:42.538Z,11.30
2023-05-08T05:05:09.071Z,11.42
2023-05-08T05:07:35.590Z,11.35
2023-05-08T05:10:02.127Z,11.62
2023-05-08T05:12:28.575Z,12.10
2023-05-08T05:14:55.190Z,12.34
2023-05-08T05:17:21.912Z,12.81
2023-05-08T05:19:48.793Z,13.54
2023-05-08T05:22:16.346Z,14.31
2023-05-08T05:24:42.911Z,14.61
2023-05-08T05:27:09.455Z,14.26
2023-05-08T05:29:35.873Z,14.63
2023-05-08T05:32:02.770Z,14.07
2023-05-08T05:34:29.859Z,13.54
2023-05-08T05:36:56.413Z,13.28
2023-05-08T05:39:23.018Z,13.16
2023-05-08T05:41:51.009Z,13.15
2023-05-08T05:44:18.286Z,13.24
2023-05-08T05:46:45.547Z,13.31
2023-05-08T05:49:12.361Z,13.36
2023-05-08T05:51:38.778Z,13.46
2023-05-08T05:54:05.468Z,13.55
2023-05-08T05:56:32.076Z,13.70
2023-05-08T05:58:58.701Z,15.04
2023-05-08T06:01:25.320Z,16.00
2023-05-08T06:03:52.280Z,15.93
2023-05-08T06:06:20.377Z,15.71
2023-05-08T06:08:46.960Z,15.62
2023-05-08T06:11:13.405Z,15.74
2023-05-08T06:13:41.301Z,16.85
2023-05-08T06:16:08.326Z,18.10
2023-05-08T06:18:34.855Z,18.66
2023-05-08T06:21:01.512Z,18.46
2023-05-08T06:23:28.122Z,18.74
2023-05-08T06:25:54.725Z,18.43
2023-05-08T06:28:22.560Z,17.56
2023-05-08T06:30:49.273Z,17.42
2023-05-08T06:33:15.865Z,17.62
2023-05-08T06:35:46.456Z,17.73
2023-05-08T06:38:13.079Z,17.74
2023-05-08T06:40:46.537Z,17.94
2023-05-08T06:43:13.691Z,17.89
2023-05-08T06:45:40.345Z,17.99
2023-05-08T06:48:07.055Z,18.79
2023-05-08T06:50:33.627Z,19.50
2023-05-08T06:53:00.583Z,19.66
2023-05-08T06:55:27.112Z,19.88
2023-05-08T06:57:53.550Z,20.35
2023-05-08T07:00:20.702Z,20.49
2023-05-08T07:02:48.728Z,20.42
2023-05-08T07:05:15.458Z,20.11
2023-05-08T07:07:42.863Z,19.69
2023-05-08T07:10:10.338Z,19.33
2023-05-08T07:12:37.307Z,19.20
2023-05-08T07:15:13.938Z,19.00
2023-05-08T07:17:44.697Z,18.89
2023-05-08T07:20:11.508Z,18.83
2023-05-08T07:22:38.269Z,18.94
2023-05-08T07:25:05.489Z,18.89
2023-05-08T07:27:31.969Z,18.69
2023-05-08T07:29:58.899Z,18.44
2023-05-08T07:32:25.444Z,18.26
2023-05-08T07:34:52.144Z,18.12
2023-05-08T07:37:18.651Z,18.17
2023-05-08T07:39:45.139Z,18.14
2023-05-08T07:42:11.847Z,18.15
2023-05-08T07:44:51.028Z,18.17
2023-05-08T07:47:20.741Z,18.10
2023-05-08T07:49:47.602Z,17.96
2023-05-08T07:52:14.175Z,17.88
2023-05-08T07:54:41.579Z,17.75
2023-05-08T07:57:08.041Z,17.72
2023-05-08T07:59:34.652Z,17.87
2023-05-08T08:02:01.394Z,18.05
2023-05-08T08:04:28.140Z,18.07
2023-05-08T08:06:55.313Z,18.20
2023-05-08T08:09:21.990Z,18.28
2023-05-08T08:11:48.589Z,18.42
2023-05-08T08:14:15.142Z,18.60
2023-05-08T08:16:42.926Z,18.73
2023-05-08T08:19:10.784Z,18.67
2023-05-08T08:21:43.534Z,18.59
2023-05-08T08:24:10.492Z,18.60
2023-05-08T08:26:37.200Z,18.55
2023-05-08T08:29:04.134Z,18.48
2023-05-08T08:31:30.716Z,18.50
2023-05-08T08:33:57.580Z,18.50
2023-05-08T08:36:24.399Z,18.47
2023-05-08T08:38:50.904Z,18.43
2023-05-08T08:41:17.467Z,18.51
2023-05-08T08:43:44.121Z,18.70
2023-05-08T08:46:14.646Z,18.93
2023-05-08T08:48:46.571Z,19.16
2023-05-08T08:51:28.681Z,19.44
2023-05-08T08:54:11.582Z,19.32
2023-05-08T08:56:40.706Z,19.35
2023-05-08T08:59:08.969Z,19.56
2023-05-08T09:01:40.828Z,19.67
2023-05-08T09:04:07.444Z,19.77
2023-05-08T09:06:38.593Z,19.89
2023-05-08T09:09:05.722Z,20.04
2023-05-08T09:11:32.498Z,20.19
2023-05-08T09:13:59.587Z,20.40
2023-05-08T09:16:28.381Z,20.74
2023-05-08T09:18:55.183Z,21.31
2023-05-08T09:21:23.305Z,21.41
2023-05-08T09:23:56.545Z,21.41
2023-05-08T09:26:42.100Z,21.24
2023-05-08T09:29:17.223Z,21.08
2023-05-08T09:31:46.068Z,21.05
2023-05-08T09:34:28.057Z,21.14
2023-05-08T09:37:15.317Z,21.13
2023-05-08T09:39:43.340Z,21.23
2023-05-08T09:42:09.845Z,21.32
2023-05-08T09:44:50.733Z,21.33
2023-05-08T09:47:20.709Z,21.42
2023-05-08T09:50:04.235Z,21.50
2023-05-08T09:52:32.618Z,21.35
2023-05-08T09:55:06.886Z,21.29
2023-05-08T09:57:39.447Z,21.23
2023-05-08T10:00:07.422Z,21.26
2023-05-08T10:02:35.381Z,21.23
2023-05-08T10:05:02.697Z,21.18
2023-05-08T10:07:34.492Z,21.34
2023-05-08T10:10:03.066Z,21.46
2023-05-08T10:12:31.003Z,21.51
2023-05-08T10:14:57.836Z,21.49
2023-05-08T10:17:31.398Z,21.57
2023-05-08T10:20:06.904Z,21.60
2023-05-08T10:22:37.766Z,21.59
2023-05-08T10:25:10.706Z,21.41
2023-05-08T10:28:36.370Z,21.19
2023-05-08T10:31:05.616Z,21.08
2023-05-08T10:33:34.662Z,21.00
2023-05-08T10:36:01.800Z,21.01
2023-05-08T10:38:28.547Z,20.95
2023-05-08T10:40:58.207Z,20.92
2023-05-08T10:43:25.790Z,21.03
2023-05-08T10:45:55.593Z,21.17
2023-05-08T10:48:39.283Z,21.44
2023-05-08T10:51:38.564Z,21.80
2023-05-08T10:54:09.027Z,22.12
2023-05-08T10:56:38.105Z,22.37
2023-05-08T10:59:06.001Z,22.32
2023-05-08T11:01:32.625Z,22.16
2023-05-08T11:03:59.202Z,22.13
2023-05-08T11:06:59.201Z,22.15
2023-05-08T11:09:30.873Z,22.17
2023-05-08T11:12:15.577Z,22.28
2023-05-08T11:14:42.920Z,22.16
2023-05-08T11:17:10.674Z,22.09
2023-05-08T11:19:38.039Z,21.87
2023-05-08T11:22:19.373Z,21.86
2023-05-08T11:25:03.022Z,21.82
2023-05-08T11:27:48.306Z,21.83
2023-05-08T11:30:20.902Z,21.80
2023-05-08T11:33:02.964Z,21.79
2023-05-08T11:35:46.149Z,21.81
2023-05-08T11:38:35.837Z,22.03
2023-05-08T11:41:05.529Z,22.37
2023-05-08T11:43:50.011Z,22.66
2023-05-08T11:46:18.236Z,22.93
2023-05-08T11:48:44.963Z,23.03
2023-05-08T11:51:13.678Z,23.10
2023-05-08T11:53:40.577Z,23.11
2023-05-08T11:56:08.100Z,23.17
2023-05-08T11:58:34.676Z,23.27
2023-05-08T12:01:02.281Z,23.05
2023-05-08T12:03:29.026Z,22.94
2023-05-08T12:05:57.909Z,22.76
2023-05-08T12:08:24.428Z,22.53
2023-05-08T12:10:52.821Z,22.42
2023-05-08T12:13:21.599Z,22.63
2023-05-08T12:15:54.448Z,23.03
2023-05-08T12:18:22.274Z,23.15
2023-05-08T12:20:53.222Z,23.27
2023-05-08T12:23:19.807Z,23.27
2023-05-08T12:25:46.457Z,23.18
2023-05-08T12:28:13.008Z,23.32
2023-05-08T12:30:39.578Z,23.67
2023-05-08T12:33:06.763Z,24.10
2023-05-08T12:35:33.883Z,23.96
2023-05-08T12:38:05.720Z,24.00
2023-05-08T12:40:34.429Z,23.87
2023-05-08T12:43:02.794Z,23.81
2023-05-08T12:45:34.711Z,23.72
2023-05-08T12:48:03.743Z,23.95
2023-05-08T12:50:37.939Z,24.47
2023-05-08T12:53:06.384Z,24.42
2023-05-08T12:55:34.709Z,24.74
2023-05-08T12:58:10.559Z,24.84
2023-05-08T13:00:43.462Z,24.97
2023-05-08T13:03:12.074Z,25.04
2023-05-08T13:05:43.262Z,24.76
2023-05-08T13:08:11.016Z,24.63
2023-05-08T13:10:54.522Z,24.32
2023-05-08T13:13:28.433Z,24.20
2023-05-08T13:15:55.734Z,24.21
2023-05-08T13:18:26.815Z,24.06
2023-05-08T13:20:54.718Z,23.93
2023-05-08T13:23:21.268Z,23.95
2023-05-08T13:25:47.985Z,23.86
2023-05-08T13:28:14.701Z,24.10
2023-05-08T13:30:41.328Z,24.04
2023-05-08T13:33:07.965Z,24.00
2023-05-08T13:35:37.856Z,23.88
2023-05-08T13:38:04.382Z,23.87
2023-05-08T13:40:31.359Z,23.81
2023-05-08T13:42:57.814Z,23.77
2023-05-08T13:45:24.473Z,23.69
2023-05-08T13:47:51.461Z,23.47
2023-05-08T13:50:21.652Z,23.45
2023-05-08T13:52:48.957Z,23.53
2023-05-08T13:55:16.274Z,23.64
2023-05-08T13:57:43.362Z,23.57
2023-05-08T14:00:11.283Z,23.53
2023-05-08T14:02:38.173Z,23.50
2023-05-08T14:05:05.654Z,23.42
2023-05-08T14:07:32.379Z,23.39
2023-05-08T14:09:59.026Z,23.34
2023-05-08T14:12:28.389Z,23.32
2023-05-08T14:14:54.954Z,23.30
2023-05-08T14:17:21.524Z,23.24
2023-05-08T14:19:51.276Z,23.23
2023-05-08T14:22:18.032Z,23.17
2023-05-08T14:24:44.529Z,23.13
2023-05-08T14:27:11.340Z,23.00
2023-05-08T14:29:37.963Z,22.90
2023-05-08T14:32:05.360Z,22.91
2023-05-08T14:34:31.934Z,22.88
2023-05-08T14:36:58.723Z,23.04
2023-05-08T14:39:25.433Z,23.30
2023-05-08T14:42:17.793Z,23.35
2023-05-08T14:44:38.979Z,23.40
2023-05-08T14:47:05.745Z,23.36
2023-05-08T14:49:38.039Z,23.35
2023-05-08T14:52:06.823Z,23.36
2023-05-08T14:54:33.939Z,23.13
2023-05-08T14:57:00.781Z,23.09
2023-05-08T14:59:27.551Z,22.94
2023-05-08T15:01:54.259Z,22.80
2023-05-08T15:04:20.968Z,22.65
2023-05-08T15:06:47.618Z,22.64
2023-05-08T15:09:16.913Z,22.60
2023-05-08T15:11:43.779Z,22.53
2023-05-08T15:14:10.343Z,22.42
2023-05-08T15:16:37.225Z,22.27
2023-05-08T15:19:03.867Z,22.19
2023-05-08T15:21:30.499Z,22.14
2023-05-08T15:23:57.159Z,22.10
2023-05-08T15:26:23.669Z,22.02
2023-05-08T15:28:51.138Z,21.98
2023-05-08T15:31:18.023Z,21.91
2023-05-08T15:33:45.231Z,21.88
2023-05-08T15:36:15.460Z,21.87
2023-05-08T15:38:42.915Z,21.86
2023-05-08T15:41:15.136Z,21.85
2023-05-08T15:43:42.422Z,21.97
2023-05-08T15:46:09.047Z,22.10
2023-05-08T15:48:35.660Z,22.18
2023-05-08T15:51:02.183Z,22.29
2023-05-08T15:53:28.801Z,22.23
2023-05-08T15:55:56.971Z,22.20
2023-05-08T15:58:23.763Z,22.25
2023-05-08T16:00:50.380Z,22.21
2023-05-08T16:03:17.206Z,21.97
2023-05-08T16:05:43.946Z,21.93
2023-05-08T16:08:13.185Z,21.88
2023-05-08T16:10:40.993Z,21.81
2023-05-08T16:13:07.966Z,21.67
2023-05-08T16:15:34.715Z,21.72
2023-05-08T16:18:01.507Z,21.74
2023-05-08T16:20:28.102Z,21.67
2023-05-08T16:22:56.067Z,21.50
2023-05-08T16:25:22.950Z,21.37
2023-05-08T16:27:49.766Z,21.36
2023-05-08T16:30:17.037Z,21.35
2023-05-08T16:32:46.018Z,21.26
2023-05-08T16:35:12.904Z,21.18
2023-05-08T16:37:39.924Z,21.16
2023-05-08T16:40:08.093Z,21.06
2023-05-08T16:42:35.453Z,21.01
2023-05-08T16:45:02.700Z,20.95
2023-05-08T16:47:29.207Z,20.88
2023-05-08T16:49:56.743Z,20.82
2023-05-08T16:52:23.322Z,20.82
2023-05-08T16:54:50.024Z,20.80
2023-05-08T16:57:16.564Z,20.79
2023-05-08T16:59:43.133Z,20.82
2023-05-08T17:02:10.165Z,20.94
2023-05-08T17:04:40.126Z,21.06
2023-05-08T17:07:07.747Z,21.20
2023-05-08T17:09:35.088Z,21.36
2023-05-08T17:12:02.261Z,21.37
2023-05-08T17:14:28.929Z,21.30
2023-05-08T17:16:55.578Z,21.26
2023-05-08T17:19:22.231Z,21.20
2023-05-08T17:21:50.373Z,21.08
2023-05-08T17:24:18.762Z,20.96
2023-05-08T17:26:47.684Z,20.84
2023-05-08T17:29:14.350Z,20.72
2023-05-08T17:31:42.130Z,20.59
2023-05-08T17:34:08.781Z,20.51
2023-05-08T17:36:35.467Z,20.37
2023-05-08T17:39:02.349Z,20.27
2023-05-08T17:41:29.027Z,20.15
2023-05-08T17:43:58.697Z,20.04
2023-05-08T17:46:25.750Z,20.02
2023-05-08T17:48:58.550Z,19.98
2023-05-08T17:51:25.248Z,19.93
2023-05-08T17:54:00.492Z,19.88
2023-05-08T17:56:31.675Z,19.82
2023-05-08T17:59:00.659Z,19.72
2023-05-08T18:01:27.734Z,19.69
2023-05-08T18:03:54.676Z,19.63
2023-05-08T18:06:21.426Z,19.55
2023-05-08T18:08:48.237Z,19.48
2023-05-08T18:11:22.828Z,19.45
2023-05-08T18:13:55.049Z,19.39
2023-05-08T18:16:23.925Z,19.32
2023-05-08T18:18:50.851Z,19.23
2023-05-08T18:24:03.066Z,19.08
2023-05-08T18:26:30.850Z,19.02
2023-05-08T18:28:59.070Z,18.92
2023-05-08T18:31:26.113Z,18.83
2023-05-08T18:33:52.942Z,18.79
2023-05-08T18:36:22.766Z,18.71
2023-05-08T18:38:50.911Z,18.63
2023-05-08T18:41:19.389Z,18.61
2023-05-08T18:44:03.512Z,18.56
2023-05-08T18:46:31.994Z,18.51
2023-05-08T18:49:06.791Z,18.42
2023-05-08T18:51:36.618Z,18.38
2023-05-08T18:54:04.944Z,18.28
2023-05-08T18:56:34.351Z,18.19
2023-05-08T18:59:03.170Z,18.03
2023-05-08T19:01:30.428Z,17.97
2023-05-08T19:03:57.201Z,17.92
2023-05-08T19:06:24.052Z,17.88
2023-05-08T19:08:52.235Z,17.84
2023-05-08T19:11:18.976Z,17.77
2023-05-08T19:13:45.491Z,17.64
2023-05-08T19:16:12.603Z,17.50
2023-05-08T19:18:39.195Z,17.49
2023-05-08T19:21:06.566Z,17.39
2023-05-08T19:23:33.154Z,17.31
2023-05-08T19:25:59.681Z,17.26
2023-05-08T19:28:26.277Z,17.24
2023-05-08T19:30:52.724Z,17.16
2023-05-08T19:33:20.988Z,17.11
2023-05-08T19:35:48.360Z,17.05
2023-05-08T19:38:15.183Z,16.99
2023-05-08T19:40:55.616Z,16.92
2023-05-08T19:43:23.396Z,16.85
2023-05-08T19:45:49.884Z,16.80
2023-05-08T19:48:18.247Z,16.72
2023-05-08T19:50:45.042Z,16.64
2023-05-08T19:53:12.800Z,16.58
2023-05-08T19:55:39.369Z,16.51
2023-05-08T19:58:05.919Z,16.47
2023-05-08T20:00:32.468Z,16.40
2023-05-08T20:02:59.091Z,16.30
2023-05-08T20:05:25.743Z,16.27
2023-05-08T20:07:52.234Z,16.19
2023-05-08T20:10:18.815Z,16.15
2023-05-08T20:12:45.337Z,16.11
2023-05-08T20:15:12.202Z,16.07
2023-05-08T20:17:39.043Z,16.01
2023-05-08T20:20:06.346Z,15.96
2023-05-08T20:22:32.888Z,15.91
2023-05-08T20:25:01.027Z,15.85
2023-05-08T20:27:28.664Z,15.77
2023-05-08T20:29:55.543Z,15.78
2023-05-08T20:32:22.150Z,15.81
2023-05-08T20:34:49.054Z,15.82
2023-05-08T20:37:18.262Z,15.81
2023-05-08T20:39:45.233Z,15.81
2023-05-08T20:42:11.947Z,15.80
2023-05-08T20:44:38.604Z,15.81
2023-05-08T20:47:05.155Z,15.75
2023-05-08T20:49:31.789Z,15.77
2023-05-08T20:51:58.320Z,15.72
2023-05-08T20:54:24.996Z,15.73
2023-05-08T20:56:51.902Z,15.69
2023-05-08T20:59:18.825Z,15.68
2023-05-08T21:01:46.789Z,15.67
2023-05-08T21:04:13.455Z,15.67
2023-05-08T21:06:41.229Z,15.66
2023-05-08T21:09:07.778Z,15.69
2023-05-08T21:11:34.349Z,15.65
2023-05-08T21:14:01.168Z,15.64
2023-05-08T21:16:27.666Z,15.62
2023-05-08T21:18:56.677Z,15.60
2023-05-08T21:21:24.629Z,15.56
2023-05-08T21:23:51.179Z,15.52
2023-05-08T21:26:19.832Z,15.43
2023-05-08T21:28:46.363Z,15.34
2023-05-08T21:31:12.878Z,15.32
2023-05-08T21:33:39.871Z,15.31
2023-05-08T21:36:06.518Z,15.30
2023-05-08T21:38:33.062Z,15.23
2023-05-08T21:41:06.518Z,15.18
2023-05-08T21:43:33.175Z,15.16
2023-05-08T21:45:59.923Z,15.17
2023-05-08T21:48:26.621Z,15.18
2023-05-08T21:50:53.086Z,15.18
2023-05-08T21:53:19.525Z,15.18
2023-05-08T21:55:46.270Z,15.13
2023-05-08T21:58:12.717Z,15.09
2023-05-08T22:00:39.699Z,15.10
2023-05-08T22:03:06.421Z,15.12
2023-05-08T22:05:32.998Z,15.12
2023-05-08T22:07:59.459Z,15.10
2023-05-08T22:10:25.977Z,15.08
2023-05-08T22:12:52.556Z,15.08
2023-05-08T22:15:28.985Z,15.10
2023-05-08T22:17:56.517Z,15.06
2023-05-08T22:20:23.110Z,15.09
2023-05-08T22:22:49.745Z,15.09
2023-05-08T22:25:16.542Z,15.07
2023-05-08T22:27:43.334Z,15.07
2023-05-08T22:30:10.018Z,15.06
2023-05-08T22:32:36.858Z,15.02
2023-05-08T22:35:03.595Z,14.99
2023-05-08T22:37:30.658Z,14.94
2023-05-08T22:39:57.123Z,14.91
2023-05-08T22:42:24.269Z,14.85
2023-05-08T22:44:51.306Z,14.81
2023-05-08T22:47:18.006Z,14.77
2023-05-08T22:49:44.511Z,14.75
2023-05-08T22:52:11.030Z,14.64
2023-05-08T22:54:37.548Z,14.61
2023-05-08T22:57:04.116Z,14.61
2023-05-08T22:59:30.758Z,14.59
2023-05-08T23:01:57.273Z,14.58
2023-05-08T23:04:23.958Z,14.57
2023-05-08T23:06:50.494Z,14.51
2023-05-08T23:09:16.930Z,14.47
2023-05-08T23:11:43.418Z,14.46
2023-05-08T23:14:09.896Z,14.44
2023-05-08T23:16:36.492Z,14.43
2023-05-08T23:19:04.550Z,14.42
2023-05-08T23:21:32.158Z,14.42
2023-05-08T23:23:59.003Z,14.36
2023-05-08T23:26:26.138Z,14.32
2023-05-08T23:28:52.906Z,14.29
2023-05-08T23:31:19.432Z,14.25
2023-05-08T23:33:46.343Z,14.25
2023-05-08T23:36:12.979Z,14.25
2023-05-08T23:38:39.507Z,14.22
2023-05-08T23:41:06.061Z,14.22
2023-05-08T23:43:32.551Z,14.20
2023-05-08T23:45:59.238Z,14.20
2023-05-08T23:48:26.331Z,14.15
2023-05-08T23:50:53.545Z,14.14
2023-05-08T23:53:20.043Z,14.12
2023-05-08T23:55:50.841Z,14.12
2023-05-08T23:58:18.428Z,14.12
